Main page
METAR-TAF:

METAR-TAF

Airports :

Araçatuba Airport

Araçatuba, São Paulo, Brazil

latitude: 21-08-39S, longitude: 050-25-35W, elevation: 415 m

Current weather observation

The report was made 1 hour and 13 minutes ago, at 22:00 UTC
Wind 15 kt from the East
Temperature 18°C
Humidity 83%
Pressure 1015 hPa
Visibility 10 km or more
Scattered clouds at a height of 3000 ft

METAR: SBAU 202200Z 09015KT 9999 SCT030 18/15 Q1015

Time: 20:13 (23:13 UTC)


TAF: missing

Weather observations and forecasts of more than 4000 airports (METAR and TAF reports).

The available stations are represented by yellow and red dots on the map.

Hover mouse over dot to see the name of the station.

Then click to see weather observations and forecasts.

To change the map : click on the green buttons with a black cross to zoom in, on the green button with a dash to zoom out, or on the green arrows for adjacent maps.


METAR-TAF: